Time;durP1;ratioP1;P1;durP2;ratioP2;P2;SDS_P1;SDS_P2;PMS_P1;PMS_P2;Temp;Humidity;BMP_temperature;BMP_pressure;BME280_temperature;BME280_humidity;BME280_pressure;Samples;Min_cycle;Max_cycle;Signal;HPM_P1;HPM_P2
2021/05/26 00:00:20;;;;;;;1.67;0.83;;;20.40;57.50;;;;;;5054284;28;20512;-60
2021/05/26 00:02:47;;;;;;;1.70;1.10;;;20.30;57.50;;;;;;5054927;28;20236;-60
2021/05/26 00:05:14;;;;;;;1.27;0.90;;;20.30;57.40;;;;;;5049706;28;20217;-61
2021/05/26 00:07:41;;;;;;;1.83;1.37;;;20.30;57.50;;;;;;5058703;28;20227;-61
2021/05/26 00:10:09;;;;;;;1.87;1.00;;;20.30;57.50;;;;;;5059994;28;20218;-61
2021/05/26 00:12:36;;;;;;;1.47;1.03;;;20.30;57.40;;;;;;5064649;28;20233;-60
2021/05/26 00:15:06;;;;;;;1.20;0.97;;;20.30;57.30;;;;;;5060824;28;20221;-61
2021/05/26 00:17:33;;;;;;;1.37;1.00;;;20.30;57.40;;;;;;5064500;28;20229;-61
2021/05/26 00:20:00;;;;;;;1.50;1.10;;;20.30;57.40;;;;;;5057838;28;20706;-61
2021/05/26 00:22:27;;;;;;;1.97;1.20;;;20.30;57.40;;;;;;5066346;28;20225;-60
2021/05/26 00:24:54;;;;;;;1.87;0.90;;;20.30;57.30;;;;;;5058913;28;20237;-60
2021/05/26 00:27:21;;;;;;;2.20;1.00;;;20.30;57.30;;;;;;5065965;28;20571;-60
2021/05/26 00:29:48;;;;;;;1.17;0.87;;;20.30;57.20;;;;;;5059754;28;20256;-60
2021/05/26 00:32:15;;;;;;;1.57;1.10;;;20.30;57.30;;;;;;5058284;28;20240;-61
2021/05/26 00:34:42;;;;;;;2.17;1.20;;;20.20;57.90;;;;;;5059302;28;20244;-60
2021/05/26 00:37:09;;;;;;;1.63;1.20;;;20.30;57.30;;;;;;5060308;28;20221;-60
2021/05/26 00:39:36;;;;;;;1.87;1.10;;;20.20;57.20;;;;;;5061322;28;20237;-61
2021/05/26 00:42:03;;;;;;;1.30;0.90;;;20.20;57.10;;;;;;5061877;28;20217;-61
2021/05/26 00:44:30;;;;;;;1.40;1.00;;;20.20;57.20;;;;;;5044799;28;20214;-60
2021/05/26 00:46:56;;;;;;;1.00;0.90;;;20.20;57.30;;;;;;5058536;28;20586;-60
2021/05/26 00:49:23;;;;;;;1.87;1.17;;;20.20;57.20;;;;;;5064369;28;20240;-60
2021/05/26 00:51:50;;;;;;;1.40;0.93;;;20.20;57.20;;;;;;5058440;28;20595;-60
2021/05/26 00:54:17;;;;;;;1.50;1.00;;;20.20;57.10;;;;;;5066172;28;20728;-60
2021/05/26 00:56:44;;;;;;;1.77;1.00;;;20.20;57.10;;;;;;5058792;28;20217;-60
2021/05/26 00:59:10;;;;;;;1.23;0.90;;;20.20;57.10;;;;;;5064071;28;20232;-61
2021/05/26 01:01:37;;;;;;;1.80;1.13;;;20.10;57.00;;;;;;5057370;28;20210;-61
2021/05/26 01:04:04;;;;;;;1.83;1.00;;;20.20;57.10;;;;;;5062254;28;20206;-60
2021/05/26 01:06:31;;;;;;;1.40;1.00;;;20.20;57.20;;;;;;5060347;28;20216;-60
2021/05/26 01:08:58;;;;;;;1.47;1.10;;;20.10;57.10;;;;;;5072254;28;20218;-61
2021/05/26 01:11:25;;;;;;;1.30;1.03;;;20.10;57.00;;;;;;5049967;28;20254;-60
2021/05/26 01:13:52;;;;;;;3.27;1.23;;;20.10;57.10;;;;;;5055858;28;20225;-60
2021/05/26 01:16:18;;;;;;;1.60;1.00;;;20.10;57.10;;;;;;5049702;28;20233;-61
2021/05/26 01:18:45;;;;;;;1.97;1.10;;;20.10;57.00;;;;;;5057093;28;20230;-61
2021/05/26 01:21:15;;;;;;;2.07;1.20;;;20.10;57.10;;;;;;5063209;28;20734;-61
2021/05/26 01:23:42;;;;;;;1.93;1.17;;;20.10;57.20;;;;;;5056764;28;20245;-61
2021/05/26 01:26:09;;;;;;;2.53;1.43;;;20.10;57.20;;;;;;5047917;28;20226;-61
2021/05/26 01:28:37;;;;;;;1.83;1.00;;;20.10;57.10;;;;;;5058926;28;20224;-61
2021/05/26 01:31:04;;;;;;;1.40;0.90;;;20.10;57.10;;;;;;5064759;28;20237;-60
2021/05/26 01:33:31;;;;;;;1.70;1.13;;;20.10;57.00;;;;;;5053540;28;20217;-60
2021/05/26 01:35:58;;;;;;;2.30;1.20;;;20.10;57.00;;;;;;5051915;28;20220;-61
2021/05/26 01:38:25;;;;;;;2.53;1.40;;;20.10;57.00;;;;;;5036999;28;20234;-60
2021/05/26 01:40:56;;;;;;;2.43;1.13;;;20.10;57.00;;;;;;5061508;28;20230;-60
2021/05/26 01:43:25;;;;;;;3.10;1.10;;;20.10;57.00;;;;;;5058454;28;20282;-60
2021/05/26 01:45:52;;;;;;;1.83;1.10;;;20.10;57.00;;;;;;5061495;28;20569;-60
2021/05/26 01:48:19;;;;;;;1.83;1.03;;;20.10;57.00;;;;;;5063405;28;20229;-61
2021/05/26 01:50:46;;;;;;;1.43;1.30;;;20.10;57.00;;;;;;5058277;28;20451;-61
2021/05/26 01:53:13;;;;;;;1.50;1.20;;;20.10;56.90;;;;;;5046930;28;20279;-61
2021/05/26 01:55:40;;;;;;;1.83;1.10;;;20.00;56.80;;;;;;5059613;28;21263;-60
2021/05/26 01:58:07;;;;;;;2.33;1.30;;;20.00;56.80;;;;;;5047671;28;20692;-60
2021/05/26 02:00:39;;;;;;;2.40;1.30;;;20.10;56.80;;;;;;5055252;28;20781;-60
2021/05/26 02:03:05;;;;;;;2.00;1.23;;;20.00;56.80;;;;;;5049739;28;20225;-60
2021/05/26 02:05:32;;;;;;;1.73;1.17;;;20.10;56.80;;;;;;5059769;28;20345;-60
2021/05/26 02:08:00;;;;;;;2.70;1.40;;;20.00;56.80;;;;;;5076751;28;20232;-61
2021/05/26 02:13:13;;;;;;;2.17;1.27;;;20.00;56.70;;;;;;5065093;28;20251;-60
2021/05/26 02:15:40;;;;;;;1.27;1.00;;;20.00;56.70;;;;;;5055684;28;20218;-61
2021/05/26 02:18:07;;;;;;;1.80;1.07;;;20.00;56.80;;;;;;5062323;28;20210;-60
2021/05/26 02:20:33;;;;;;;2.80;1.47;;;20.00;56.80;;;;;;5067614;28;20229;-60
2021/05/26 02:23:00;;;;;;;1.93;1.40;;;20.00;56.80;;;;;;5061846;28;20502;-61
2021/05/26 02:25:27;;;;;;;2.57;1.57;;;20.00;56.80;;;;;;5051408;28;20226;-60
2021/05/26 02:27:54;;;;;;;2.03;1.30;;;20.00;56.70;;;;;;5060568;28;20220;-60
2021/05/26 02:30:22;;;;;;;1.90;1.40;;;19.90;56.70;;;;;;5053210;28;20689;-59
2021/05/26 02:32:49;;;;;;;2.50;1.17;;;19.90;57.20;;;;;;5060065;28;20217;-61
2021/05/26 02:35:16;;;;;;;3.27;1.60;;;19.90;56.70;;;;;;5067942;28;20226;-61
2021/05/26 02:37:43;;;;;;;3.17;1.40;;;19.90;56.70;;;;;;5063078;28;20247;-61
2021/05/26 02:40:10;;;;;;;1.73;1.00;;;19.90;56.60;;;;;;5066582;28;20248;-61
2021/05/26 02:42:37;;;;;;;2.07;1.27;;;19.90;56.60;;;;;;5052430;28;20226;-60
2021/05/26 02:45:05;;;;;;;2.27;1.57;;;19.90;56.60;;;;;;5062562;28;20220;-60
2021/05/26 02:47:32;;;;;;;3.03;1.60;;;19.90;56.70;;;;;;5062821;28;20594;-60
2021/05/26 02:49:59;;;;;;;3.00;1.50;;;19.90;56.60;;;;;;5063034;28;20234;-60
2021/05/26 02:52:26;;;;;;;2.23;1.20;;;19.90;56.60;;;;;;5051143;28;20482;-61
2021/05/26 02:54:52;;;;;;;3.00;1.40;;;19.90;56.60;;;;;;5060328;28;20210;-60
2021/05/26 02:57:20;;;;;;;3.17;1.23;;;19.90;56.60;;;;;;5067399;28;20228;-61
2021/05/26 02:59:47;;;;;;;2.70;1.30;;;19.90;56.50;;;;;;5059340;28;20375;-61
2021/05/26 03:02:14;;;;;;;3.07;1.27;;;19.90;56.60;;;;;;5053477;28;20332;-60
2021/05/26 03:04:46;;;;;;;2.37;1.30;;;19.90;56.50;;;;;;5062426;28;20225;-61
2021/05/26 03:07:13;;;;;;;1.80;1.10;;;19.90;56.60;;;;;;5068054;28;20225;-60
2021/05/26 03:09:39;;;;;;;2.40;1.40;;;19.90;56.60;;;;;;5054992;28;20626;-60
2021/05/26 03:12:06;;;;;;;2.93;1.53;;;19.90;56.40;;;;;;5057398;28;20248;-60
2021/05/26 03:14:34;;;;;;;2.80;1.40;;;19.90;56.50;;;;;;5056889;28;20217;-60
2021/05/26 03:17:01;;;;;;;2.37;1.30;;;19.90;56.40;;;;;;5063827;28;20216;-60
2021/05/26 03:19:28;;;;;;;2.50;1.53;;;19.90;56.30;;;;;;5060955;28;20701;-60
2021/05/26 03:21:54;;;;;;;4.30;1.80;;;19.90;56.40;;;;;;5059117;28;20230;-60
2021/05/26 03:24:22;;;;;;;3.53;1.50;;;19.90;56.40;;;;;;5066044;28;20726;-60
2021/05/26 03:26:49;;;;;;;3.27;1.50;;;19.90;56.40;;;;;;5061137;28;20228;-60
2021/05/26 03:29:16;;;;;;;2.63;1.50;;;19.90;56.40;;;;;;5066242;28;20237;-60
2021/05/26 03:31:43;;;;;;;3.43;1.13;;;19.80;56.40;;;;;;5060822;28;20229;-60
2021/05/26 03:34:10;;;;;;;2.83;1.50;;;19.90;56.50;;;;;;5049504;28;20229;-61
2021/05/26 03:36:38;;;;;;;2.30;1.50;;;19.90;56.50;;;;;;5060186;28;20217;-60
2021/05/26 03:39:07;;;;;;;3.07;1.50;;;19.90;56.40;;;;;;5063330;28;21011;-61
2021/05/26 03:41:34;;;;;;;2.73;1.70;;;19.90;56.30;;;;;;5060743;28;20593;-60
2021/05/26 03:44:01;;;;;;;2.00;1.40;;;19.80;56.30;;;;;;5064874;28;20854;-61
2021/05/26 03:46:27;;;;;;;2.90;1.50;;;19.90;56.30;;;;;;5051302;28;20234;-60
2021/05/26 03:48:54;;;;;;;2.17;1.60;;;19.80;56.20;;;;;;5054872;28;20692;-60
2021/05/26 03:51:21;;;;;;;2.90;1.57;;;19.80;56.80;;;;;;5057440;28;20225;-60
2021/05/26 03:53:48;;;;;;;4.73;1.77;;;19.80;56.20;;;;;;5064861;28;20221;-60
2021/05/26 03:56:14;;;;;;;2.97;1.43;;;19.80;56.20;;;;;;5049184;28;20228;-60
2021/05/26 03:58:41;;;;;;;3.50;1.33;;;19.80;56.10;;;;;;5058563;28;20233;-61
2021/05/26 04:01:08;;;;;;;3.53;1.40;;;19.80;56.20;;;;;;5065419;28;20226;-60
2021/05/26 04:03:35;;;;;;;2.73;1.80;;;19.80;56.20;;;;;;5061307;28;20221;-60
2021/05/26 04:06:04;;;;;;;2.40;1.43;;;19.80;56.20;;;;;;5081692;28;20224;-60
2021/05/26 04:08:31;;;;;;;2.03;1.20;;;19.70;56.20;;;;;;5059083;28;20218;-60
2021/05/26 04:10:58;;;;;;;2.93;1.50;;;19.80;56.20;;;;;;5065476;28;20252;-61
2021/05/26 04:13:24;;;;;;;2.50;1.43;;;19.80;56.20;;;;;;5058442;28;20233;-61
2021/05/26 04:15:51;;;;;;;3.00;1.60;;;19.80;56.20;;;;;;5065714;28;20225;-56
2021/05/26 04:18:18;;;;;;;1.67;1.10;;;19.70;56.10;;;;;;5061875;28;20613;-55
2021/05/26 04:20:45;;;;;;;2.23;1.20;;;19.80;56.20;;;;;;5065031;28;20225;-55
2021/05/26 04:23:12;;;;;;;3.03;1.37;;;19.80;56.20;;;;;;5051455;28;20229;-56
2021/05/26 04:25:39;;;;;;;2.73;1.47;;;19.80;56.20;;;;;;5056038;28;20233;-56
2021/05/26 04:28:08;;;;;;;2.97;1.43;;;19.70;56.10;;;;;;5049331;28;20254;-56
2021/05/26 04:30:35;;;;;;;4.53;1.47;;;19.70;56.20;;;;;;5058116;28;20686;-56
2021/05/26 04:33:05;;;;;;;2.77;1.40;;;19.70;56.10;;;;;;5048438;28;20230;-56
2021/05/26 04:35:32;;;;;;;2.63;1.23;;;19.70;56.20;;;;;;5057358;28;20213;-56
2021/05/26 04:37:59;;;;;;;2.90;1.60;;;19.80;56.10;;;;;;5048949;28;20239;-56
2021/05/26 04:40:26;;;;;;;2.70;1.27;;;19.70;56.10;;;;;;5057950;28;20217;-56
2021/05/26 04:42:53;;;;;;;3.50;1.40;;;19.80;56.10;;;;;;5049818;28;20235;-56
2021/05/26 04:45:20;;;;;;;3.40;1.50;;;19.70;56.10;;;;;;5060363;28;20750;-56
2021/05/26 04:47:47;;;;;;;2.40;1.50;;;19.70;56.10;;;;;;5063302;28;20222;-56
2021/05/26 04:50:14;;;;;;;2.90;1.50;;;19.80;56.10;;;;;;5058420;28;20236;-56
2021/05/26 04:52:41;;;;;;;2.33;1.30;;;19.70;56.10;;;;;;5064214;28;20227;-56
2021/05/26 04:55:08;;;;;;;3.40;1.53;;;19.80;56.10;;;;;;5049550;28;20764;-55
2021/05/26 04:57:36;;;;;;;2.77;1.30;;;19.80;56.00;;;;;;5056479;28;20503;-55
2021/05/26 05:00:05;;;;;;;2.40;1.30;;;19.70;55.90;;;;;;5049549;28;20232;-55
2021/05/26 05:02:32;;;;;;;2.20;1.30;;;19.70;56.00;;;;;;5057121;28;20237;-55
2021/05/26 05:04:59;;;;;;;2.33;1.57;;;19.70;56.00;;;;;;5059851;28;20249;-55
2021/05/26 05:07:26;;;;;;;3.40;1.43;;;19.70;55.90;;;;;;5058638;28;20214;-55
2021/05/26 05:09:53;;;;;;;2.53;1.33;;;19.70;55.80;;;;;;5055198;28;20255;-56
2021/05/26 05:12:20;;;;;;;2.73;1.63;;;19.70;55.80;;;;;;5041966;28;20221;-55
2021/05/26 05:14:47;;;;;;;1.57;1.30;;;19.70;55.90;;;;;;5056509;28;20229;-55
2021/05/26 05:17:13;;;;;;;3.00;1.33;;;19.70;56.00;;;;;;5062212;28;20232;-53
2021/05/26 05:19:40;;;;;;;4.63;1.57;;;19.70;56.00;;;;;;5056570;28;20220;-53
2021/05/26 05:22:07;;;;;;;19.37;5.43;;;19.70;56.10;;;;;;5061890;28;20240;-53
2021/05/26 05:24:39;;;;;;;19.90;5.57;;;19.70;55.90;;;;;;5066188;28;20225;-53
2021/05/26 05:27:06;;;;;;;11.43;3.90;;;19.70;55.70;;;;;;5040707;28;20229;-54
2021/05/26 05:29:32;;;;;;;11.90;4.30;;;19.70;55.60;;;;;;5060221;28;20217;-55
2021/05/26 05:31:59;;;;;;;10.20;4.00;;;19.70;55.60;;;;;;5061515;28;20237;-55
2021/05/26 05:34:26;;;;;;;11.20;3.10;;;19.70;55.50;;;;;;5060840;28;20225;-55
2021/05/26 05:36:53;;;;;;;13.43;4.10;;;19.80;55.50;;;;;;5047592;28;20218;-60
2021/05/26 05:39:20;;;;;;;15.27;4.50;;;19.70;56.00;;;;;;5053907;28;20218;-61
2021/05/26 05:41:47;;;;;;;19.57;5.37;;;19.80;56.30;;;;;;5053113;28;20233;-61
2021/05/26 05:44:14;;;;;;;13.60;5.47;;;19.80;56.50;;;;;;5054393;28;20222;-61
2021/05/26 05:46:40;;;;;;;12.73;4.47;;;19.80;56.40;;;;;;5028800;28;20851;-61
2021/05/26 05:49:07;;;;;;;12.70;4.37;;;19.80;56.30;;;;;;5056090;28;20711;-61
2021/05/26 05:51:34;;;;;;;14.93;4.67;;;19.90;56.10;;;;;;5047261;28;20712;-60
2021/05/26 05:54:01;;;;;;;11.17;3.80;;;19.90;55.90;;;;;;5053125;28;20226;-62
2021/05/26 05:56:28;;;;;;;8.80;4.40;;;20.00;56.10;;;;;;5059996;28;20225;-60
2021/05/26 05:58:54;;;;;;;12.23;3.93;;;20.00;56.40;;;;;;5056329;28;20245;-60
2021/05/26 06:01:21;;;;;;;11.60;3.93;;;20.10;56.60;;;;;;5055944;28;20237;-60
2021/05/26 06:03:48;;;;;;;10.97;3.83;;;20.10;56.60;;;;;;5057856;28;20240;-61
2021/05/26 06:06:15;;;;;;;10.60;3.40;;;20.10;56.80;;;;;;5061559;28;20225;-61
2021/05/26 06:08:42;;;;;;;9.60;3.80;;;20.20;56.60;;;;;;5054842;28;20229;-62
2021/05/26 06:11:09;;;;;;;9.43;3.97;;;20.20;56.70;;;;;;5055810;28;20209;-62
2021/05/26 06:13:38;;;;;;;12.17;3.57;;;20.30;56.70;;;;;;5055026;28;20233;-60
2021/05/26 06:16:05;;;;;;;7.77;2.70;;;20.30;56.40;;;;;;5062959;28;20221;-60
2021/05/26 06:18:31;;;;;;;11.07;3.13;;;20.40;55.80;;;;;;5058008;28;20221;-60
2021/05/26 06:20:58;;;;;;;9.67;3.20;;;20.50;56.00;;;;;;5058931;28;20233;-64
2021/05/26 06:23:27;;;;;;;8.50;3.40;;;20.50;55.90;;;;;;5054987;28;20228;-63
2021/05/26 06:25:54;;;;;;;6.97;3.20;;;20.60;56.50;;;;;;5057537;28;20248;-62
2021/05/26 06:28:20;;;;;;;5.63;2.60;;;20.60;56.90;;;;;;5055592;28;20228;-60
2021/05/26 06:30:47;;;;;;;7.10;3.03;;;20.60;56.70;;;;;;5052450;28;20706;-60
2021/05/26 06:33:14;;;;;;;5.77;2.50;;;20.70;56.50;;;;;;5054434;28;20747;-60
2021/05/26 06:35:41;;;;;;;7.93;2.47;;;20.70;56.30;;;;;;5056405;28;20221;-59
2021/05/26 06:38:08;;;;;;;4.20;2.20;;;20.80;55.90;;;;;;5052250;28;20233;-61
2021/05/26 06:40:35;;;;;;;5.77;2.43;;;20.80;55.20;;;;;;5057007;28;20220;-61
2021/05/26 06:43:02;;;;;;;7.07;2.30;;;20.80;55.10;;;;;;5060110;28;20740;-57
2021/05/26 06:45:29;;;;;;;6.07;2.03;;;20.80;55.10;;;;;;5050794;28;20252;-61
2021/05/26 06:47:55;;;;;;;5.50;1.97;;;20.80;53.60;;;;;;5053983;28;20252;-60
2021/05/26 06:50:22;;;;;;;4.70;1.73;;;20.80;53.00;;;;;;5055756;28;20571;-59
2021/05/26 06:52:49;;;;;;;4.70;1.80;;;20.80;52.90;;;;;;5058463;28;20229;-62
2021/05/26 06:55:17;;;;;;;5.00;2.07;;;20.80;52.80;;;;;;5058058;28;20249;-59
2021/05/26 06:57:46;;;;;;;6.73;1.90;;;20.80;51.40;;;;;;5062610;28;20225;-58
2021/05/26 07:00:14;;;;;;;2.73;1.60;;;20.70;52.80;;;;;;5057298;28;20225;-61
2021/05/26 07:02:41;;;;;;;4.07;1.80;;;20.70;51.70;;;;;;5045482;28;20221;-64
2021/05/26 07:05:09;;;;;;;2.60;1.40;;;20.80;52.40;;;;;;5061119;28;20234;-61
2021/05/26 07:07:35;;;;;;;3.17;1.50;;;20.80;52.40;;;;;;5065602;28;20225;-63
2021/05/26 07:10:06;;;;;;;3.03;1.57;;;20.90;52.30;;;;;;5060019;28;20237;-61
2021/05/26 07:12:33;;;;;;;3.73;1.40;;;20.90;52.10;;;;;;5065711;28;20232;-60
2021/05/26 07:15:00;;;;;;;3.00;1.60;;;20.90;51.90;;;;;;5060991;28;20248;-60
2021/05/26 07:17:30;;;;;;;2.53;1.50;;;21.00;51.90;;;;;;5066608;28;20316;-59
2021/05/26 07:19:57;;;;;;;2.23;1.33;;;21.00;51.50;;;;;;5058115;28;20623;-58
2021/05/26 07:22:24;;;;;;;1.67;1.23;;;21.00;51.20;;;;;;5065612;28;20229;-60
2021/05/26 07:24:51;;;;;;;2.43;1.40;;;21.10;51.70;;;;;;5063190;28;20730;-59
2021/05/26 07:27:18;;;;;;;2.43;1.33;;;21.10;51.50;;;;;;5065471;28;20256;-58
2021/05/26 07:29:45;;;;;;;4.87;1.40;;;21.10;51.30;;;;;;5056474;28;20567;-56
2021/05/26 07:32:12;;;;;;;5.63;1.80;;;21.10;51.20;;;;;;5053588;28;20237;-57
2021/05/26 07:34:38;;;;;;;3.83;1.50;;;21.10;51.10;;;;;;5062515;28;20232;-56
2021/05/26 07:37:05;;;;;;;3.27;1.20;;;21.10;50.80;;;;;;5065327;28;20220;-57
2021/05/26 07:39:36;;;;;;;2.83;1.40;;;21.10;50.70;;;;;;5062504;28;20229;-57
2021/05/26 07:42:05;;;;;;;1.53;1.20;;;21.20;50.50;;;;;;5063572;28;20234;-58
2021/05/26 07:44:33;;;;;;;2.93;1.37;;;21.20;49.90;;;;;;5058816;28;20209;-58
2021/05/26 07:47:00;;;;;;;2.70;1.33;;;21.20;50.20;;;;;;5062946;28;20226;-57
2021/05/26 07:49:27;;;;;;;2.43;1.40;;;21.20;50.20;;;;;;5054228;28;20245;-57
2021/05/26 07:51:55;;;;;;;2.60;1.30;;;21.20;50.00;;;;;;5055599;28;20217;-57
2021/05/26 07:54:23;;;;;;;2.43;1.00;;;21.20;50.20;;;;;;5052478;28;20592;-56
2021/05/26 07:56:50;;;;;;;3.07;1.50;;;21.20;50.40;;;;;;5055473;28;20225;-56
2021/05/26 07:59:17;;;;;;;4.67;1.23;;;21.20;50.40;;;;;;5050018;28;20759;-57
2021/05/26 08:01:44;;;;;;;2.43;1.30;;;21.30;50.40;;;;;;5061378;28;20229;-65
2021/05/26 08:04:11;;;;;;;3.20;1.57;;;21.30;50.20;;;;;;5059739;28;20225;-58
2021/05/26 08:06:38;;;;;;;2.27;1.47;;;21.30;49.80;;;;;;5062797;28;20235;-60
2021/05/26 08:09:05;;;;;;;2.43;1.40;;;21.30;49.70;;;;;;5051362;28;20233;-61
2021/05/26 08:11:32;;;;;;;3.03;1.37;;;21.30;49.80;;;;;;5062819;28;20225;-60
2021/05/26 08:13:59;;;;;;;2.83;1.50;;;21.30;50.00;;;;;;5058350;28;20253;-59
2021/05/26 08:16:26;;;;;;;2.33;1.40;;;21.30;49.70;;;;;;5060918;28;20236;-60
2021/05/26 08:18:54;;;;;;;2.70;1.43;;;21.40;49.20;;;;;;5052868;28;20229;-60
2021/05/26 08:21:21;;;;;;;1.93;1.40;;;21.40;49.50;;;;;;5059718;28;20221;-60
2021/05/26 08:23:48;;;;;;;1.57;1.33;;;21.40;49.70;;;;;;5060541;28;20684;-60
2021/05/26 08:26:20;;;;;;;5.60;1.43;;;21.40;50.00;;;;;;5067596;28;20221;-60
2021/05/26 08:28:49;;;;;;;3.53;1.47;;;21.40;50.00;;;;;;5066359;28;20439;-62
2021/05/26 08:31:16;;;;;;;1.80;1.10;;;21.50;49.90;;;;;;5059139;28;20598;-58
2021/05/26 08:33:44;;;;;;;2.67;1.43;;;21.50;50.00;;;;;;5062529;28;20228;-59
2021/05/26 08:36:11;;;;;;;4.17;2.00;;;21.50;50.00;;;;;;5056805;28;20226;-61
2021/05/26 08:38:39;;;;;;;1.40;1.20;;;21.50;49.90;;;;;;5058537;28;20456;-61
2021/05/26 08:41:07;;;;;;;2.03;1.40;;;21.40;49.00;;;;;;5055105;28;20214;-58
2021/05/26 08:43:37;;;;;;;3.00;1.67;;;21.40;48.30;;;;;;5062779;28;20226;-56
2021/05/26 08:46:04;;;;;;;1.97;1.33;;;21.40;48.70;;;;;;5056278;28;20940;-54
2021/05/26 08:48:32;;;;;;;2.80;1.43;;;21.40;49.00;;;;;;5046647;28;20233;-55
2021/05/26 08:51:00;;;;;;;1.97;1.30;;;21.40;49.10;;;;;;5057211;28;20214;-53
2021/05/26 08:53:28;;;;;;;2.53;1.17;;;21.40;49.10;;;;;;5046437;28;20226;-53
2021/05/26 08:55:55;;;;;;;3.60;1.40;;;21.40;49.10;;;;;;5055325;28;20221;-56
2021/05/26 08:58:22;;;;;;;1.93;1.20;;;21.50;49.00;;;;;;5056519;28;20358;-57
2021/05/26 09:00:49;;;;;;;2.27;1.20;;;21.50;49.70;;;;;;5061406;28;20590;-59
2021/05/26 09:03:16;;;;;;;2.03;1.13;;;21.40;49.10;;;;;;5050875;28;20237;-58
2021/05/26 09:05:51;;;;;;;2.03;1.27;;;21.40;48.70;;;;;;5054042;28;20232;-58
2021/05/26 09:08:19;;;;;;;2.47;1.33;;;21.40;49.00;;;;;;5061483;28;21797;-57
2021/05/26 09:11:05;;;;;;;4.70;1.40;;;21.40;48.20;;;;;;5054381;28;20232;-60
2021/05/26 09:13:39;;;;;;;3.93;1.10;;;21.40;48.00;;;;;;5025914;28;20323;-59
2021/05/26 09:16:29;;;;;;;3.37;1.30;;;21.40;48.20;;;;;;5047888;28;20214;-59
2021/05/26 09:18:59;;;;;;;2.27;1.20;;;21.40;48.00;;;;;;5054320;28;20363;-58
2021/05/26 09:21:44;;;;;;;4.80;1.47;;;21.50;48.40;;;;;;5049993;28;20240;-60
2021/05/26 09:24:23;;;;;;;3.27;1.20;;;21.50;47.60;;;;;;5057725;28;20229;-60
2021/05/26 09:26:56;;;;;;;1.63;1.07;;;21.50;48.00;;;;;;5064569;28;20217;-65
2021/05/26 09:29:25;;;;;;;2.77;1.00;;;21.50;47.30;;;;;;5055464;28;20438;-61
2021/05/26 09:32:13;;;;;;;2.60;1.40;;;21.50;47.60;;;;;;5065448;28;20228;-60
2021/05/26 09:34:42;;;;;;;2.17;1.20;;;21.50;47.60;;;;;;5028662;28;20225;-58
2021/05/26 09:37:13;;;;;;;1.97;1.10;;;21.50;47.90;;;;;;5049183;28;20226;-61
2021/05/26 09:39:51;;;;;;;3.00;1.30;;;21.50;47.80;;;;;;5056078;28;20220;-62
2021/05/26 09:42:37;;;;;;;2.93;1.67;;;21.50;47.00;;;;;;5063902;28;20600;-59
2021/05/26 09:45:20;;;;;;;2.20;1.20;;;21.50;46.50;;;;;;5050894;28;20297;-60
2021/05/26 09:47:55;;;;;;;1.90;1.10;;;21.50;46.50;;;;;;5067281;28;20711;-65
2021/05/26 09:50:34;;;;;;;3.47;1.80;;;21.60;46.30;;;;;;5057527;28;21003;-59
2021/05/26 09:53:05;;;;;;;4.37;1.27;;;21.50;46.30;;;;;;5058106;28;20232;-57
2021/05/26 09:55:42;;;;;;;3.73;1.60;;;21.60;46.50;;;;;;5063388;28;20225;-58
2021/05/26 09:58:11;;;;;;;5.00;1.50;;;21.60;46.10;;;;;;5056646;28;20241;-57
2021/05/26 10:00:44;;;;;;;2.37;1.40;;;21.60;45.50;;;;;;5063088;28;20228;-60
2021/05/26 10:03:11;;;;;;;2.27;1.50;;;21.50;45.40;;;;;;5056529;28;20217;-59
2021/05/26 10:05:38;;;;;;;2.60;1.33;;;21.50;45.30;;;;;;5051363;28;20731;-55
2021/05/26 10:08:12;;;;;;;2.63;1.33;;;21.50;45.70;;;;;;5052849;28;20229;-57
2021/05/26 10:10:41;;;;;;;3.77;1.80;;;21.50;46.10;;;;;;5055501;28;20221;-55
2021/05/26 10:13:10;;;;;;;3.43;1.77;;;21.50;46.60;;;;;;5053222;28;20225;-57
2021/05/26 10:15:39;;;;;;;3.70;1.83;;;21.50;46.30;;;;;;5053354;28;20218;-55
2021/05/26 10:18:06;;;;;;;1.83;1.47;;;21.50;46.30;;;;;;5040087;28;20230;-55
2021/05/26 10:20:44;;;;;;;2.40;1.60;;;21.50;47.60;;;;;;5055753;28;20320;-55
2021/05/26 10:23:17;;;;;;;3.90;1.50;;;21.40;47.40;;;;;;5060861;28;20252;-63
2021/05/26 10:25:45;;;;;;;2.40;1.80;;;21.40;48.90;;;;;;5045861;28;20578;-62
2021/05/26 10:28:26;;;;;;;6.13;2.87;;;21.40;48.40;;;;;;5064892;28;20689;-63
2021/05/26 10:30:55;;;;;;;3.73;1.93;;;21.40;47.70;;;;;;5063064;28;20225;-64
2021/05/26 10:33:42;;;;;;;3.20;1.97;;;21.40;48.00;;;;;;5057113;28;20230;-65
2021/05/26 10:36:11;;;;;;;3.57;1.50;;;21.40;48.60;;;;;;5047805;28;20224;-64
2021/05/26 10:38:58;;;;;;;2.93;2.13;;;21.40;48.90;;;;;;5049522;28;20228;-57
2021/05/26 10:41:46;;;;;;;2.83;2.10;;;21.40;47.60;;;;;;5058973;28;21950;-57
2021/05/26 10:44:13;;;;;;;6.13;3.30;;;21.40;47.60;;;;;;5065502;28;20284;-56
2021/05/26 10:46:41;;;;;;;4.27;3.20;;;21.40;46.00;;;;;;5057653;28;20233;-57
2021/05/26 10:49:10;;;;;;;3.73;3.17;;;21.30;45.90;;;;;;5063549;28;20225;-56
2021/05/26 10:51:57;;;;;;;4.67;3.30;;;21.30;45.20;;;;;;5050913;28;20244;-57
2021/05/26 10:54:39;;;;;;;3.97;3.00;;;21.20;45.40;;;;;;5060527;28;20560;-57
2021/05/26 10:57:07;;;;;;;5.00;3.27;;;21.30;45.70;;;;;;5049383;28;20237;-57
2021/05/26 10:59:35;;;;;;;4.30;3.00;;;21.20;45.50;;;;;;5059242;28;20237;-57
2021/05/26 11:02:05;;;;;;;4.17;3.37;;;21.30;45.60;;;;;;5032312;28;20704;-57
2021/05/26 11:04:33;;;;;;;4.20;3.03;;;21.30;45.60;;;;;;5059755;28;20811;-56
2021/05/26 11:07:20;;;;;;;4.60;2.90;;;21.30;45.50;;;;;;5066744;28;20222;-57
2021/05/26 11:09:54;;;;;;;3.20;2.70;;;21.30;46.60;;;;;;5051617;28;20784;-57
2021/05/26 11:12:21;;;;;;;5.87;2.67;;;21.30;47.20;;;;;;5063691;28;21481;-60
2021/05/26 11:15:25;;;;;;;4.93;3.13;;;21.30;48.70;;;;;;5073542;28;20221;-60
2021/05/26 11:18:13;;;;;;;5.03;3.00;;;21.40;46.50;;;;;;5053369;28;20696;-54
2021/05/26 11:20:40;;;;;;;3.20;2.50;;;21.30;45.80;;;;;;5053732;28;21296;-54
2021/05/26 11:23:11;;;;;;;7.40;2.80;;;21.30;46.50;;;;;;5065108;28;20294;-69
2021/05/26 11:25:56;;;;;;;4.63;3.30;;;21.40;46.60;;;;;;5071647;28;20237;-66
2021/05/26 11:28:35;;;;;;;4.57;3.07;;;21.40;45.00;;;;;;5064722;28;20364;-64
2021/05/26 11:31:07;;;;;;;3.63;2.60;;;21.40;45.20;;;;;;5065935;28;20224;-68
2021/05/26 11:33:56;;;;;;;4.43;2.53;;;21.40;46.80;;;;;;5053649;28;20227;-65
2021/05/26 11:36:42;;;;;;;3.87;3.27;;;21.40;47.70;;;;;;5067106;28;20234;-61
2021/05/26 11:39:26;;;;;;;3.90;2.87;;;21.50;45.80;;;;;;5069729;28;20225;-63
2021/05/26 11:42:06;;;;;;;4.37;2.53;;;21.50;46.10;;;;;;5065246;28;20336;-64
2021/05/26 11:44:44;;;;;;;8.30;3.03;;;21.50;46.80;;;;;;5071244;28;20224;-61
2021/05/26 11:47:11;;;;;;;4.57;2.93;;;21.50;47.30;;;;;;5066511;28;20689;-58
2021/05/26 11:49:40;;;;;;;3.57;2.50;;;21.50;46.80;;;;;;5067467;28;20226;-69
2021/05/26 11:52:10;;;;;;;9.50;2.80;;;21.60;46.30;;;;;;5056978;28;20717;-70
2021/05/26 11:55:01;;;;;;;3.63;2.40;;;21.60;46.70;;;;;;5057779;28;20225;-66
2021/05/26 11:57:37;;;;;;;5.80;3.20;;;21.60;47.10;;;;;;5041240;28;20768;-64
2021/05/26 12:00:24;;;;;;;5.53;3.20;;;21.60;45.70;;;;;;5066364;28;20217;-60
2021/05/26 12:03:02;;;;;;;5.23;2.40;;;21.60;45.80;;;;;;5071152;28;21307;-60
2021/05/26 12:05:52;;;;;;;4.23;2.00;;;21.50;46.80;;;;;;5054157;28;21337;-60
2021/05/26 12:08:21;;;;;;;3.53;2.03;;;21.50;47.70;;;;;;5062871;28;20698;-61
2021/05/26 12:10:52;;;;;;;3.80;2.10;;;21.60;48.40;;;;;;5061532;28;20229;-59
2021/05/26 12:13:27;;;;;;;2.70;1.70;;;21.60;48.40;;;;;;5062428;28;20218;-61
2021/05/26 12:15:58;;;;;;;3.03;1.93;;;21.60;48.80;;;;;;5053077;28;20805;-63
2021/05/26 12:18:25;;;;;;;2.83;1.40;;;21.60;48.80;;;;;;5061063;28;20230;-63
2021/05/26 12:20:54;;;;;;;3.03;1.70;;;21.60;48.90;;;;;;5062511;28;20221;-59
2021/05/26 12:23:34;;;;;;;2.37;1.70;;;21.70;49.00;;;;;;5061227;28;20583;-65
2021/05/26 12:26:19;;;;;;;3.53;1.20;;;21.70;49.10;;;;;;5037271;28;20323;-62
2021/05/26 12:28:46;;;;;;;1.80;1.30;;;21.70;49.20;;;;;;5059121;28;20598;-66
2021/05/26 12:31:15;;;;;;;3.67;1.40;;;21.70;49.30;;;;;;5062398;28;20707;-60
2021/05/26 12:33:55;;;;;;;3.17;1.40;;;21.70;49.50;;;;;;5057421;28;20249;-59
2021/05/26 12:36:24;;;;;;;2.10;1.30;;;21.80;49.60;;;;;;5033896;28;20808;-64
2021/05/26 12:39:00;;;;;;;1.90;1.30;;;21.70;49.60;;;;;;5056353;28;20221;-63
2021/05/26 12:41:35;;;;;;;1.47;1.10;;;21.80;49.80;;;;;;5049564;28;20674;-63
2021/05/26 12:44:24;;;;;;;1.97;1.20;;;21.80;49.80;;;;;;5052527;28;20271;-63
2021/05/26 12:46:59;;;;;;;1.53;1.00;;;21.80;49.90;;;;;;5061415;28;20814;-57
2021/05/26 12:49:29;;;;;;;2.13;1.03;;;21.90;49.90;;;;;;5046775;28;20249;-61
2021/05/26 12:52:01;;;;;;;2.13;1.20;;;21.90;50.00;;;;;;5059740;28;20230;-57
2021/05/26 12:54:40;;;;;;;1.23;1.10;;;21.90;49.80;;;;;;5057300;28;20222;-57
2021/05/26 12:57:18;;;;;;;1.47;1.20;;;21.90;49.80;;;;;;5070545;28;20225;-60
2021/05/26 12:59:52;;;;;;;5.90;1.00;;;21.90;49.80;;;;;;5067201;28;20252;-57